Time;durP1;ratioP1;P1;durP2;ratioP2;P2;SDS_P1;SDS_P2;PMS_P1;PMS_P2;Temp;Humidity;BMP_temperature;BMP_pressure;BME280_temperature;BME280_humidity;BME280_pressure;Samples;Min_cycle;Max_cycle;Signal;HPM_P1;HPM_P2
2024/01/26 00:02:15;;;;;;;26.23;15.90;;;;;;;-145.18;100.00;47099.91;4994865;28;20038;-75
2024/01/26 00:04:41;;;;;;;24.67;15.33;;;;;;;-145.18;100.00;47097.97;4994580;28;20033;-74
2024/01/26 00:07:06;;;;;;;22.67;14.63;;;;;;;-145.18;100.00;47101.88;4994548;28;20034;-75
2024/01/26 00:09:32;;;;;;;23.93;14.93;;;;;;;-145.18;100.00;47096.00;4994431;28;20057;-74
2024/01/26 00:11:58;;;;;;;22.40;14.13;;;;;;;-145.18;100.00;47097.97;4994453;28;20441;-74
2024/01/26 00:14:23;;;;;;;22.53;14.80;;;;;;;-145.18;100.00;47094.06;4994402;28;20034;-74
2024/01/26 00:16:49;;;;;;;26.73;14.73;;;;;;;-145.18;100.00;47092.09;4993162;28;20041;-74
2024/01/26 00:19:14;;;;;;;22.20;13.57;;;;;;;-145.18;100.00;47094.06;4993481;28;20037;-74
2024/01/26 00:21:39;;;;;;;21.37;13.30;;;;;;;-145.18;100.00;47086.25;4994265;28;20112;-74
2024/01/26 00:24:05;;;;;;;20.83;12.03;;;;;;;-145.18;100.00;47090.16;4960692;28;20105;-74
2024/01/26 00:26:30;;;;;;;18.97;13.40;;;;;;;-145.18;100.00;47090.16;4993238;28;20049;-74
2024/01/26 00:28:56;;;;;;;20.97;12.73;;;;;;;-145.18;100.00;47086.25;4994508;28;20479;-74
2024/01/26 00:31:21;;;;;;;22.53;13.87;;;;;;;-145.18;100.00;47086.25;4994410;28;20041;-74
2024/01/26 00:33:47;;;;;;;18.67;12.03;;;;;;;-145.18;100.00;47082.34;4987863;28;20577;-73
2024/01/26 00:36:13;;;;;;;16.80;11.30;;;;;;;-145.18;100.00;47076.47;4983950;28;20038;-73
2024/01/26 00:38:42;;;;;;;17.17;10.33;;;;;;;-145.18;100.00;47076.47;4992276;28;20030;-74
2024/01/26 00:41:07;;;;;;;18.00;10.50;;;;;;;-145.18;100.00;47074.53;4993318;28;20038;-74
2024/01/26 00:43:33;;;;;;;14.10;9.50;;;;;;;-145.18;100.00;47074.53;4991362;28;20018;-74
2024/01/26 00:45:59;;;;;;;14.60;8.00;;;;;;;-145.18;100.00;47074.53;4982905;28;20179;-74
2024/01/26 00:48:24;;;;;;;11.17;7.77;;;;;;;-145.18;100.00;47074.53;4975052;28;20030;-73
2024/01/26 00:50:50;;;;;;;15.07;8.73;;;;;;;-145.18;100.00;47066.72;4974966;28;20049;-74
2024/01/26 00:53:18;;;;;;;12.93;8.03;;;;;;;-145.18;100.00;47064.75;4978804;28;20022;-74
2024/01/26 00:55:44;;;;;;;13.90;8.60;;;;;;;-145.18;100.00;47062.81;4982610;28;20050;-74
2024/01/26 00:58:09;;;;;;;11.40;7.63;;;;;;;-145.18;100.00;47064.75;4974512;28;20035;-74
2024/01/26 01:00:35;;;;;;;10.00;7.27;;;;;;;-145.18;100.00;47058.91;4985378;28;20038;-74
2024/01/26 01:03:00;;;;;;;9.50;6.63;;;;;;;-145.18;100.00;47060.84;4992907;28;20030;-73
2024/01/26 01:05:25;;;;;;;8.73;6.10;;;;;;;-145.18;100.00;47058.91;4965700;28;20450;-74
2024/01/26 01:07:51;;;;;;;12.10;6.40;;;;;;;-145.18;100.00;47055.00;4973745;28;20117;-74
2024/01/26 01:10:16;;;;;;;9.43;6.00;;;;;;;-145.18;100.00;47058.91;4974647;28;20466;-74
2024/01/26 01:12:42;;;;;;;9.37;5.33;;;;;;;-145.18;100.00;47060.84;4974676;28;20383;-74
2024/01/26 01:15:11;;;;;;;8.60;5.53;;;;;;;-145.18;100.00;47058.91;4974314;28;20035;-73
2024/01/26 01:17:46;;;;;;;8.70;5.83;;;;;;;-145.18;100.00;47056.94;4985771;28;20082;-73
2024/01/26 01:20:13;;;;;;;9.82;4.88;;;;;;;-145.18;100.00;47055.00;4958862;28;20505;-73
2024/01/26 01:22:40;;;;;;;7.43;4.63;;;;;;;-145.18;100.00;47056.94;4975810;28;20031;-73
2024/01/26 01:25:06;;;;;;;10.07;4.83;;;;;;;-145.18;100.00;47055.00;4973950;28;20487;-73
2024/01/26 01:27:32;;;;;;;9.33;4.83;;;;;;;-145.18;100.00;47053.03;4975300;28;20395;-73
2024/01/26 01:29:58;;;;;;;8.03;4.80;;;;;;;-145.18;100.00;47055.00;4986783;28;20034;-73
2024/01/26 01:32:23;;;;;;;7.87;5.13;;;;;;;-145.18;100.00;47053.03;4975470;28;20091;-68
2024/01/26 01:34:49;;;;;;;8.10;5.63;;;;;;;-145.18;100.00;47056.94;4990070;28;20062;-68
2024/01/26 01:37:14;;;;;;;9.07;5.60;;;;;;;-145.18;100.00;47055.00;4992718;28;20643;-69
2024/01/26 01:39:40;;;;;;;11.27;6.17;;;;;;;-145.18;100.00;47056.94;4993175;28;20407;-69
2024/01/26 01:42:13;;;;;;;9.67;6.50;;;;;;;-145.18;100.00;47055.00;4992942;28;20038;-69
2024/01/26 01:44:42;;;;;;;10.27;7.50;;;;;;;-145.18;100.00;47055.00;4993247;28;20034;-69
2024/01/26 01:47:12;;;;;;;15.53;9.27;;;;;;;-145.18;100.00;47056.94;4976758;28;20030;-68
2024/01/26 01:49:38;;;;;;;18.47;10.97;;;;;;;-145.18;100.00;47051.09;4992791;28;20030;-69
2024/01/26 01:52:07;;;;;;;15.93;12.37;;;;;;;-145.18;100.00;47056.94;4993141;28;20022;-68
2024/01/26 01:54:33;;;;;;;22.23;13.93;;;;;;;-145.18;100.00;47060.84;4992920;28;20027;-69
2024/01/26 01:57:01;;;;;;;22.20;13.87;;;;;;;-145.18;100.00;47055.00;4992855;28;20372;-68
2024/01/26 01:59:27;;;;;;;22.37;14.70;;;;;;;-145.18;100.00;47060.84;4992549;28;20026;-69
2024/01/26 02:01:52;;;;;;;24.60;14.13;;;;;;;-145.18;100.00;47060.84;4993027;28;20026;-68
2024/01/26 02:04:17;;;;;;;23.07;14.83;;;;;;;-145.18;100.00;47058.91;4992587;28;20403;-69
2024/01/26 02:06:55;;;;;;;22.33;14.83;;;;;;;-145.18;100.00;47058.91;4975303;28;20037;-69
2024/01/26 02:09:20;;;;;;;29.10;15.67;;;;;;;-145.18;100.00;47058.91;4992643;28;20022;-68
2024/01/26 02:11:46;;;;;;;25.17;14.10;;;;;;;-145.18;100.00;47064.75;4992488;28;20706;-68
2024/01/26 02:14:11;;;;;;;24.07;14.67;;;;;;;-145.18;100.00;47060.84;4992761;28;20023;-68
2024/01/26 02:16:37;;;;;;;19.97;13.07;;;;;;;-145.18;100.00;47068.66;4992898;28;20081;-68
2024/01/26 02:19:02;;;;;;;18.77;12.43;;;;;;;-145.18;100.00;47066.72;4992045;28;20033;-68
2024/01/26 02:21:27;;;;;;;20.27;12.83;;;;;;;-145.18;100.00;47066.72;4992515;28;20064;-69
2024/01/26 02:23:53;;;;;;;20.03;11.90;;;;;;;-145.18;100.00;47070.63;4990789;28;20030;-68
2024/01/26 02:26:18;;;;;;;20.77;12.80;;;;;;;-145.18;100.00;47068.66;4992477;28;20034;-68
2024/01/26 02:28:44;;;;;;;21.77;12.20;;;;;;;-145.18;100.00;47072.56;4990695;28;20553;-68
2024/01/26 02:31:09;;;;;;;20.47;11.67;;;;;;;-145.18;100.00;47070.63;4992163;28;20106;-69
2024/01/26 02:33:34;;;;;;;21.30;11.67;;;;;;;-145.18;100.00;47068.66;4989994;28;20537;-68
2024/01/26 02:36:00;;;;;;;19.27;11.60;;;;;;;-145.18;100.00;47070.63;4992707;28;20124;-69
2024/01/26 02:38:25;;;;;;;19.57;11.60;;;;;;;-145.18;100.00;47072.56;4974604;28;20041;-68
2024/01/26 02:40:50;;;;;;;18.13;12.30;;;;;;;-145.18;100.00;47070.63;4991974;28;20038;-68
2024/01/26 02:43:16;;;;;;;17.77;10.87;;;;;;;-145.18;100.00;47068.66;4992088;28;20038;-73
2024/01/26 02:45:46;;;;;;;16.63;11.03;;;;;;;-145.18;100.00;47074.53;4973464;28;20487;-73
2024/01/26 02:48:11;;;;;;;15.70;11.03;;;;;;;-145.18;100.00;47070.63;4992338;28;20165;-72
2024/01/26 02:50:37;;;;;;;14.73;10.57;;;;;;;-145.18;100.00;47070.63;4992459;28;20034;-73
2024/01/26 02:53:02;;;;;;;15.03;10.10;;;;;;;-145.18;100.00;47070.63;4991651;28;20027;-72
2024/01/26 02:55:28;;;;;;;22.60;10.37;;;;;;;-145.18;100.00;47074.53;4975099;28;20031;-73
2024/01/26 02:57:53;;;;;;;14.33;9.17;;;;;;;-145.18;100.00;47074.53;4991948;28;20883;-72
2024/01/26 03:00:19;;;;;;;15.47;9.90;;;;;;;-145.18;100.00;47076.47;4992061;28;20038;-73
2024/01/26 03:02:44;;;;;;;13.20;9.00;;;;;;;-145.18;100.00;47078.44;4974341;28;20694;-73
2024/01/26 03:05:10;;;;;;;17.80;9.40;;;;;;;-145.18;100.00;47074.53;4992065;28;20042;-72
2024/01/26 03:07:36;;;;;;;11.37;8.27;;;;;;;-145.18;100.00;47078.44;4974583;28;20026;-72
2024/01/26 03:10:01;;;;;;;14.37;8.87;;;;;;;-145.18;100.00;47074.53;4991811;28;20490;-72
2024/01/26 03:12:28;;;;;;;13.40;8.30;;;;;;;-145.18;100.00;47074.53;4991676;28;20037;-72
2024/01/26 03:14:53;;;;;;;14.00;9.10;;;;;;;-145.18;100.00;47072.56;4991792;28;20041;-72
2024/01/26 03:17:19;;;;;;;12.60;8.57;;;;;;;-145.18;100.00;47076.47;4991801;28;20038;-72
2024/01/26 03:19:44;;;;;;;19.40;8.40;;;;;;;-145.18;100.00;47074.53;4991642;28;20101;-72
2024/01/26 03:22:10;;;;;;;12.27;7.60;;;;;;;-145.18;100.00;47072.56;4991923;28;20113;-72
2024/01/26 03:24:35;;;;;;;15.50;8.53;;;;;;;-145.18;100.00;47070.63;4974255;28;20479;-72
2024/01/26 03:27:00;;;;;;;17.17;9.73;;;;;;;-145.18;100.00;47074.53;4991652;28;20030;-72
2024/01/26 03:29:26;;;;;;;14.37;8.90;;;;;;;-145.18;100.00;47072.56;4991804;28;20061;-73
2024/01/26 03:31:51;;;;;;;12.43;8.57;;;;;;;-145.18;100.00;47072.56;4993659;28;20479;-72
2024/01/26 03:34:16;;;;;;;18.67;9.20;;;;;;;-145.18;100.00;47072.56;4995012;28;20421;-73
2024/01/26 03:36:42;;;;;;;14.70;9.43;;;;;;;-145.18;100.00;47078.44;4994239;28;20031;-73
2024/01/26 03:39:09;;;;;;;15.40;9.53;;;;;;;-145.18;100.00;47072.56;4995158;28;20038;-73
2024/01/26 03:41:39;;;;;;;14.93;9.70;;;;;;;-145.18;100.00;47072.56;4978083;28;20034;-72
2024/01/26 03:44:05;;;;;;;23.47;10.10;;;;;;;-145.18;100.00;47074.53;4995416;28;20030;-72
2024/01/26 03:46:30;;;;;;;14.97;10.33;;;;;;;-145.18;100.00;47074.53;4994954;28;20097;-73
2024/01/26 03:48:55;;;;;;;17.57;10.97;;;;;;;-145.18;100.00;47076.47;4994955;28;20576;-72
2024/01/26 03:51:23;;;;;;;20.13;12.53;;;;;;;-145.18;100.00;47078.44;4995279;28;20049;-68
2024/01/26 03:53:49;;;;;;;17.93;11.20;;;;;;;-145.18;100.00;47080.38;4977119;28;20030;-68
2024/01/26 03:56:14;;;;;;;16.73;10.93;;;;;;;-145.18;100.00;47074.53;4994903;28;20045;-69
2024/01/26 03:58:40;;;;;;;20.53;11.37;;;;;;;-145.18;100.00;47078.44;4994979;28;20039;-68
2024/01/26 04:01:05;;;;;;;16.23;11.07;;;;;;;-145.18;100.00;47076.47;4995488;28;20482;-69
2024/01/26 04:03:30;;;;;;;19.60;11.63;;;;;;;-145.18;100.00;47076.47;4995440;28;20065;-68
2024/01/26 04:05:56;;;;;;;16.47;11.10;;;;;;;-145.18;100.00;47076.47;4992477;28;20045;-68
2024/01/26 04:08:21;;;;;;;20.63;12.97;;;;;;;-145.18;100.00;47072.56;4993531;28;20034;-68
2024/01/26 04:10:47;;;;;;;16.10;11.27;;;;;;;-145.18;100.00;47072.56;4994769;28;20042;-68
2024/01/26 04:13:12;;;;;;;20.20;12.30;;;;;;;-145.18;100.00;47068.66;4994686;28;20437;-68
2024/01/26 04:15:37;;;;;;;16.87;11.23;;;;;;;-145.18;100.00;47072.56;4994733;28;20030;-67
2024/01/26 04:18:03;;;;;;;18.97;11.60;;;;;;;-145.18;100.00;47068.66;4994728;28;20581;-67
2024/01/26 04:20:28;;;;;;;17.63;11.17;;;;;;;-145.18;100.00;47068.66;4994589;28;20069;-68
2024/01/26 04:22:54;;;;;;;19.00;12.13;;;;;;;-145.18;100.00;47074.53;4992832;28;20045;-68
2024/01/26 04:25:19;;;;;;;19.57;10.87;;;;;;;-145.18;100.00;47072.56;4994368;28;20059;-68
2024/01/26 04:27:44;;;;;;;21.00;11.50;;;;;;;-145.18;100.00;47074.53;4976880;28;20058;-68
2024/01/26 04:30:10;;;;;;;18.83;11.93;;;;;;;-145.18;100.00;47074.53;4976477;28;20088;-68
2024/01/26 04:32:36;;;;;;;20.00;12.43;;;;;;;-145.18;100.00;47070.63;4994289;28;20406;-68
2024/01/26 04:35:02;;;;;;;21.47;12.37;;;;;;;-145.18;100.00;47070.63;4992734;28;20065;-68
2024/01/26 04:37:28;;;;;;;19.43;12.10;;;;;;;-145.18;100.00;47070.63;4994377;28;20042;-68
2024/01/26 04:39:53;;;;;;;20.47;12.23;;;;;;;-145.18;100.00;47070.63;4994137;28;20030;-68
2024/01/26 04:42:19;;;;;;;20.77;11.80;;;;;;;-145.18;100.00;47074.53;4976621;28;20031;-68
2024/01/26 04:44:44;;;;;;;22.10;13.73;;;;;;;-145.18;100.00;47078.44;4975830;28;20048;-69
2024/01/26 04:47:10;;;;;;;18.60;12.43;;;;;;;-145.18;100.00;47074.53;4977042;28;20096;-69
2024/01/26 04:49:35;;;;;;;22.63;12.60;;;;;;;-145.18;100.00;47078.44;4994000;28;20053;-69
2024/01/26 04:52:03;;;;;;;22.87;12.63;;;;;;;-145.18;100.00;47082.34;4985313;28;20035;-69
2024/01/26 04:54:29;;;;;;;20.40;12.80;;;;;;;-145.18;100.00;47080.38;4990093;28;20038;-69
2024/01/26 04:56:54;;;;;;;24.03;12.67;;;;;;;-145.18;100.00;47084.28;4994009;28;20038;-70
2024/01/26 04:59:19;;;;;;;21.70;12.13;;;;;;;-145.18;100.00;47086.25;4993867;28;20037;-70
2024/01/26 05:01:45;;;;;;;19.37;12.57;;;;;;;-145.18;100.00;47084.28;4993901;28;20026;-72
2024/01/26 05:04:10;;;;;;;17.27;11.70;;;;;;;-145.18;100.00;47088.19;4993422;28;20061;-73
2024/01/26 05:06:35;;;;;;;20.13;11.40;;;;;;;-145.18;100.00;47088.19;4993744;28;20108;-73
2024/01/26 05:09:01;;;;;;;16.73;10.73;;;;;;;-145.18;100.00;47090.16;4993373;28;20038;-73
2024/01/26 05:11:26;;;;;;;19.40;11.33;;;;;;;-145.18;100.00;47096.00;4994008;28;20483;-72
2024/01/26 05:13:52;;;;;;;16.30;10.73;;;;;;;-145.18;100.00;47094.06;4993338;28;20034;-72
2024/01/26 05:16:17;;;;;;;16.70;10.40;;;;;;;-145.18;100.00;47096.00;4976189;28;20030;-72
2024/01/26 05:18:42;;;;;;;19.07;11.03;;;;;;;-145.18;100.00;47099.91;4993472;28;20034;-72
2024/01/26 05:21:08;;;;;;;18.93;10.70;;;;;;;-145.18;100.00;47099.91;4993455;28;20536;-72
2024/01/26 05:23:33;;;;;;;17.67;11.07;;;;;;;-145.18;100.00;47103.81;4993135;28;20038;-72
2024/01/26 05:25:59;;;;;;;17.00;11.57;;;;;;;-145.18;100.00;47109.69;4993624;28;20606;-72
2024/01/26 05:28:24;;;;;;;16.67;9.73;;;;;;;-145.18;100.00;47111.66;4991870;28;20034;-72
2024/01/26 05:30:50;;;;;;;18.03;11.00;;;;;;;-145.18;100.00;47111.66;4993516;28;20201;-73
2024/01/26 05:33:15;;;;;;;16.77;10.60;;;;;;;-145.18;100.00;47113.59;4992972;28;20034;-73
2024/01/26 05:35:41;;;;;;;17.00;9.97;;;;;;;-145.18;100.00;47115.56;4975575;28;20072;-73
2024/01/26 05:38:06;;;;;;;18.37;10.07;;;;;;;-145.18;100.00;47111.66;4992950;28;20030;-74
2024/01/26 05:40:31;;;;;;;13.80;10.10;;;;;;;-145.18;100.00;47113.59;4993052;28;20026;-73
2024/01/26 05:42:57;;;;;;;16.00;9.53;;;;;;;-145.18;100.00;47117.50;4992911;28;20066;-73
2024/01/26 05:45:22;;;;;;;16.23;10.20;;;;;;;-145.18;100.00;47121.41;4992851;28;20129;-73
2024/01/26 05:47:48;;;;;;;18.23;10.50;;;;;;;-145.18;100.00;47123.38;4992654;28;20101;-73
2024/01/26 05:50:15;;;;;;;16.73;10.97;;;;;;;-145.18;100.00;47121.41;4992952;28;20399;-73
2024/01/26 05:52:41;;;;;;;16.67;10.37;;;;;;;-145.18;100.00;47125.31;4992566;28;20038;-73
2024/01/26 05:55:07;;;;;;;17.23;10.70;;;;;;;-145.18;100.00;47129.22;4991941;28;20505;-72
2024/01/26 05:57:32;;;;;;;18.23;10.90;;;;;;;-145.18;100.00;47131.19;4992847;28;20048;-73
2024/01/26 05:59:58;;;;;;;14.57;10.37;;;;;;;-145.18;100.00;47127.28;4975431;28;20479;-73
2024/01/26 06:02:24;;;;;;;17.53;11.17;;;;;;;-145.18;100.00;47133.13;4991732;28;20057;-73
2024/01/26 06:04:49;;;;;;;18.30;11.03;;;;;;;-145.18;100.00;47129.22;4992993;28;20506;-74
2024/01/26 06:07:15;;;;;;;19.57;10.40;;;;;;;-145.18;100.00;47133.13;4975077;28;20394;-73
2024/01/26 06:09:40;;;;;;;17.87;9.27;;;;;;;-145.18;100.00;47137.03;4991667;28;20414;-73
2024/01/26 06:12:06;;;;;;;16.30;10.60;;;;;;;-145.18;100.00;47137.03;4972467;28;20141;-74
2024/01/26 06:14:31;;;;;;;15.30;9.80;;;;;;;-145.18;100.00;47137.03;4988732;28;20179;-73
2024/01/26 06:16:57;;;;;;;15.03;9.57;;;;;;;-145.18;100.00;47140.94;4985952;28;20042;-73
2024/01/26 06:19:22;;;;;;;14.97;9.43;;;;;;;-145.18;100.00;47142.91;4987962;28;20379;-74
2024/01/26 06:21:47;;;;;;;17.30;10.37;;;;;;;-145.18;100.00;47139.00;4972625;28;20045;-74
2024/01/26 06:24:13;;;;;;;16.90;10.30;;;;;;;-145.18;100.00;47140.94;4988152;28;20041;-73
2024/01/26 06:26:38;;;;;;;17.83;11.33;;;;;;;-145.18;100.00;47142.91;4989732;28;20034;-74
2024/01/26 06:29:04;;;;;;;15.43;10.53;;;;;;;-145.18;100.00;47144.84;4989305;28;20560;-74
2024/01/26 06:31:29;;;;;;;16.83;10.23;;;;;;;-145.18;100.00;47146.81;4987446;28;20449;-74
2024/01/26 06:33:55;;;;;;;16.77;11.43;;;;;;;-145.18;100.00;47144.84;4987879;28;20056;-74
2024/01/26 06:36:20;;;;;;;20.07;10.80;;;;;;;-145.18;100.00;47142.91;4990204;28;20445;-74
2024/01/26 06:38:45;;;;;;;15.97;11.57;;;;;;;-145.18;100.00;47144.84;4987690;28;20038;-74
2024/01/26 06:41:11;;;;;;;16.60;11.17;;;;;;;-145.18;100.00;47144.84;4991053;28;20050;-74
2024/01/26 06:43:36;;;;;;;19.80;11.33;;;;;;;-145.18;100.00;47148.75;4990780;28;20085;-73
2024/01/26 06:46:02;;;;;;;15.47;11.70;;;;;;;-145.18;100.00;47148.75;4990929;28;20512;-74
2024/01/26 06:48:27;;;;;;;18.63;11.57;;;;;;;-145.18;100.00;47144.84;4992164;28;20030;-74
2024/01/26 06:50:53;;;;;;;18.93;12.30;;;;;;;-145.18;100.00;47148.75;4992279;28;20375;-74
2024/01/26 06:53:19;;;;;;;19.93;14.13;;;;;;;-145.18;100.00;47148.75;4974632;28;20501;-74
2024/01/26 06:55:45;;;;;;;19.30;13.40;;;;;;;-145.18;100.00;47146.81;4992114;28;20479;-73
2024/01/26 06:58:10;;;;;;;18.97;12.90;;;;;;;-145.18;100.00;47144.84;4991654;28;20118;-73
2024/01/26 07:00:36;;;;;;;17.50;13.33;;;;;;;-145.18;100.00;47146.81;4991829;28;20106;-74
2024/01/26 07:03:01;;;;;;;19.33;13.50;;;;;;;-145.18;100.00;47144.84;4991540;28;20088;-73
2024/01/26 07:05:26;;;;;;;19.43;14.10;;;;;;;-145.18;100.00;47146.81;4991670;28;20033;-74
2024/01/26 07:07:52;;;;;;;20.83;13.60;;;;;;;-145.18;100.00;47142.91;4989773;28;20119;-74
2024/01/26 07:10:18;;;;;;;19.10;13.70;;;;;;;-145.18;100.00;47140.94;4962202;28;20030;-73
2024/01/26 07:12:43;;;;;;;18.90;13.43;;;;;;;-145.18;100.00;47142.91;4995491;28;20030;-74
2024/01/26 07:15:11;;;;;;;22.03;14.10;;;;;;;-145.18;100.00;47144.84;4995646;28;20125;-73
2024/01/26 07:17:37;;;;;;;20.40;13.37;;;;;;;-145.18;100.00;47139.00;4996021;28;20034;-74
2024/01/26 07:20:03;;;;;;;15.83;11.77;;;;;;;-145.18;100.00;47142.91;4995810;28;20031;-73
2024/01/26 07:22:29;;;;;;;20.73;11.70;;;;;;;-145.18;100.00;47140.94;4995619;28;20410;-73
2024/01/26 07:24:55;;;;;;;17.70;13.17;;;;;;;-145.18;100.00;47140.94;4978132;28;20035;-74
2024/01/26 07:27:21;;;;;;;21.13;13.10;;;;;;;-145.18;100.00;47139.00;4995844;28;20479;-74
2024/01/26 07:29:47;;;;;;;19.67;12.93;;;;;;;-145.18;100.00;47133.13;4995210;28;20049;-73
2024/01/26 07:32:13;;;;;;;18.57;11.97;;;;;;;-145.18;100.00;47137.03;4995601;28;20060;-69
2024/01/26 07:34:39;;;;;;;19.43;12.97;;;;;;;-145.18;100.00;47137.03;4995008;28;20054;-69
2024/01/26 07:37:04;;;;;;;17.87;13.17;;;;;;;-145.18;100.00;47133.13;4995418;28;20065;-69
2024/01/26 07:39:29;;;;;;;17.47;12.77;;;;;;;-145.18;100.00;47127.28;4995457;28;20116;-69
2024/01/26 07:41:55;;;;;;;20.20;12.57;;;;;;;-145.18;100.00;47133.13;4977835;28;20026;-68
2024/01/26 07:44:20;;;;;;;15.90;12.17;;;;;;;-145.18;100.00;47129.22;4995509;28;20514;-69
2024/01/26 07:46:46;;;;;;;18.37;13.30;;;;;;;-145.18;100.00;47127.28;4994826;28;20056;-69
2024/01/26 07:49:11;;;;;;;19.03;13.53;;;;;;;-145.18;100.00;47127.28;4995252;28;20038;-69
2024/01/26 07:51:36;;;;;;;20.90;12.57;;;;;;;-145.18;100.00;47129.22;4995177;28;20406;-69
2024/01/26 07:54:02;;;;;;;15.03;12.67;;;;;;;-145.18;100.00;47125.31;4995188;28;20479;-69
2024/01/26 07:56:27;;;;;;;19.47;12.90;;;;;;;-145.18;100.00;47125.31;4977296;28;20026;-68
2024/01/26 07:58:53;;;;;;;20.47;12.63;;;;;;;-145.18;100.00;47129.22;4995000;28;20100;-69
2024/01/26 08:01:18;;;;;;;16.63;10.83;;;;;;;-145.18;100.00;47123.38;4994729;28;20406;-69
2024/01/26 08:03:44;;;;;;;18.63;12.00;;;;;;;-145.18;100.00;47113.59;4994794;28;20027;-69
2024/01/26 08:06:09;;;;;;;18.63;10.57;;;;;;;-145.18;100.00;47117.50;4994844;28;20437;-68
2024/01/26 08:08:35;;;;;;;16.60;9.97;;;;;;;-145.18;100.00;47113.59;4994430;28;20032;-69
2024/01/26 08:11:00;;;;;;;16.20;11.20;;;;;;;-145.18;100.00;47113.59;4994551;28;20042;-69
2024/01/26 08:13:25;;;;;;;13.50;9.80;;;;;;;-145.18;100.00;47109.69;4995505;28;20031;-69
2024/01/26 08:15:51;;;;;;;17.40;9.40;;;;;;;-145.18;100.00;47109.69;4995100;28;20038;-68
2024/01/26 08:18:16;;;;;;;13.63;10.03;;;;;;;-145.18;100.00;47107.72;4994031;28;20034;-69
2024/01/26 08:20:42;;;;;;;16.23;9.10;;;;;;;-145.18;100.00;47101.88;4977290;28;20521;-69
2024/01/26 08:23:07;;;;;;;15.97;8.73;;;;;;;-145.18;100.00;47099.91;4995107;28;20046;-69
2024/01/26 08:25:33;;;;;;;13.93;9.40;;;;;;;-145.18;100.00;47090.16;4976917;28;20030;-69
2024/01/26 08:27:58;;;;;;;15.27;7.80;;;;;;;-145.18;100.00;47090.16;4994898;28;20117;-69
2024/01/26 08:30:24;;;;;;;13.73;8.33;;;;;;;-145.18;100.00;47092.09;4977257;28;20046;-70
2024/01/26 08:32:51;;;;;;;14.77;6.17;;;;;;;-145.18;100.00;47092.09;4994386;28;20034;-69
2024/01/26 08:35:17;;;;;;;10.53;5.37;;;;;;;-145.18;100.00;47088.19;4974278;28;20061;-69
2024/01/26 08:37:42;;;;;;;12.83;4.40;;;;;;;-145.18;100.00;47084.28;4993983;28;20038;-69
2024/01/26 08:40:09;;;;;;;11.93;4.53;;;;;;;-145.18;100.00;47084.28;4994216;28;20030;-69
2024/01/26 08:42:35;;;;;;;10.87;3.80;;;;;;;-145.18;100.00;47092.09;4994259;28;20035;-69
2024/01/26 08:45:01;;;;;;;13.67;4.37;;;;;;;-145.18;100.00;47084.28;4988456;28;20053;-69
2024/01/26 08:47:26;;;;;;;8.63;3.47;;;;;;;-145.18;100.00;47090.16;4974695;28;20027;-69
2024/01/26 08:49:52;;;;;;;12.30;4.30;;;;;;;-145.18;100.00;47086.25;4991840;28;20076;-69
2024/01/26 08:52:17;;;;;;;14.00;2.87;;;;;;;-145.18;100.00;47086.25;4993869;28;20037;-69
2024/01/26 08:54:42;;;;;;;13.37;1.97;;;;;;;-145.18;100.00;47086.25;4993133;28;20372;-69
2024/01/26 08:57:08;;;;;;;15.77;2.43;;;;;;;-145.18;100.00;47082.34;4976464;28;20453;-69
2024/01/26 08:59:33;;;;;;;10.33;2.00;;;;;;;-145.18;100.00;47076.47;4992376;28;20142;-69
2024/01/26 09:01:59;;;;;;;11.17;2.33;;;;;;;-145.18;100.00;47074.53;4993255;28;20030;-69
2024/01/26 09:04:24;;;;;;;8.67;2.00;;;;;;;-145.18;100.00;47066.72;4990892;28;20050;-69
2024/01/26 09:06:50;;;;;;;13.97;2.17;;;;;;;-145.18;100.00;47060.84;4992692;28;20679;-69
2024/01/26 09:09:15;;;;;;;19.53;3.67;;;;;;;-145.18;100.00;47062.81;4992581;28;20037;-69
2024/01/26 09:11:40;;;;;;;8.57;1.50;;;;;;;-145.18;100.00;47053.03;4993634;28;20045;-70
2024/01/26 09:14:06;;;;;;;8.73;1.80;;;;;;;-145.18;100.00;47049.13;4991042;28;20028;-74
2024/01/26 09:16:31;;;;;;;5.43;1.37;;;;;;;-145.18;100.00;47035.44;4991145;28;20057;-76
2024/01/26 09:18:57;;;;;;;5.83;1.20;;;;;;;-145.18;100.00;47023.72;4991716;28;20026;-75
2024/01/26 09:21:22;;;;;;;6.30;1.37;;;;;;;-145.18;100.00;47015.91;4992644;28;20030;-75
2024/01/26 09:23:48;;;;;;;5.63;1.13;;;;;;;-145.18;100.00;47004.19;4989353;28;20050;-75
2024/01/26 09:26:13;;;;;;;14.60;1.60;;;;;;;-145.18;100.00;46998.34;4991630;28;20038;-75
2024/01/26 09:28:38;;;;;;;13.97;1.97;;;;;;;-145.18;100.00;46988.56;4961862;28;20085;-75
2024/01/26 09:31:04;;;;;;;5.37;1.20;;;;;;;-145.18;100.00;46972.94;4974808;28;20038;-75
2024/01/26 09:33:30;;;;;;;5.87;1.03;;;;;;;-145.18;100.00;46957.31;4988967;28;20442;-76
2024/01/26 09:35:56;;;;;;;4.93;1.27;;;;;;;-145.18;100.00;46937.78;4974394;28;20061;-77
2024/01/26 09:38:24;;;;;;;6.17;1.20;;;;;;;-145.18;100.00;46926.06;4990104;28;20023;-76
2024/01/26 09:40:50;;;;;;;6.97;1.10;;;;;;;-145.18;100.00;46908.47;4992020;28;20034;-77
2024/01/26 09:43:16;;;;;;;5.87;0.77;;;;;;;-145.18;100.00;46902.63;4990678;28;20470;-76
2024/01/26 09:45:43;;;;;;;5.50;0.87;;;;;;;-145.18;100.00;46883.09;4981763;28;20022;-76
2024/01/26 09:48:09;;;;;;;4.80;1.10;;;;;;;-145.18;100.00;46883.09;4976959;28;20517;-76
2024/01/26 09:50:35;;;;;;;7.27;0.90;;;;;;;-145.18;100.00;46877.22;4982521;28;20565;-77
2024/01/26 09:53:03;;;;;;;14.13;1.90;;;;;;;-145.18;100.00;46875.28;4973433;28;20022;-77
2024/01/26 09:55:31;;;;;;;9.53;1.47;;;;;;;-145.18;100.00;46863.53;4973612;28;20047;-78
2024/01/26 09:57:56;;;;;;;6.93;1.23;;;;;;;-145.18;100.00;46847.91;4972111;28;20089;-78
2024/01/26 10:00:22;;;;;;;9.00;1.40;;;;;;;-145.18;100.00;46838.16;4956285;28;20034;-79
2024/01/26 10:02:47;;;;;;;10.47;1.50;;;;;;;-145.18;100.00;46818.63;4939939;28;20038;-80
2024/01/26 10:05:17;;;;;;;6.70;0.90;;;;;;;-145.18;100.00;46812.75;4956259;28;20483;-80
2024/01/26 10:07:44;;;;;;;7.37;0.90;;;;;;;-145.18;100.00;46801.03;4972161;28;20037;-79
2024/01/26 10:10:10;;;;;;;6.03;0.70;;;;;;;-145.18;100.00;46793.22;4956639;28;20296;-79
2024/01/26 10:12:36;;;;;;;3.00;1.43;;;;;;;-145.18;100.00;46789.31;4956600;28;20447;-79
2024/01/26 10:15:07;;;;;;;4.73;1.20;;;;;;;-145.18;100.00;46783.47;4984601;28;20018;-79
2024/01/26 10:17:33;;;;;;;3.70;1.17;;;;;;;-145.18;100.00;46781.50;4974599;28;20030;-80
2024/01/26 10:20:15;;;;;;;9.17;1.40;;;;;;;-145.18;100.00;46777.59;4973929;28;20039;-79
2024/01/26 10:22:45;;;;;;;6.77;1.80;;;;;;;-145.18;100.00;46777.59;4972657;28;20023;-79
2024/01/26 10:25:11;;;;;;;3.10;0.50;;;;;;;-145.18;100.00;46777.59;4974404;28;20275;-79
2024/01/26 10:27:36;;;;;;;6.00;1.13;;;;;;;-145.18;100.00;46769.78;4973475;28;20299;-79
2024/01/26 10:30:03;;;;;;;3.23;1.10;;;;;;;-145.18;100.00;46761.97;4973556;28;20610;-79
2024/01/26 10:32:29;;;;;;;3.17;0.80;;;;;;;-145.18;100.00;46765.88;4973725;28;20031;-78
2024/01/26 10:34:59;;;;;;;9.40;0.93;;;;;;;-145.18;100.00;46760.00;4988523;28;20794;-78
2024/01/26 10:37:32;;;;;;;3.73;1.17;;;;;;;-145.18;100.00;46744.38;4992282;28;20538;-78
2024/01/26 10:40:04;;;;;;;7.73;1.17;;;;;;;-145.18;100.00;46740.47;4986511;28;20465;-78
2024/01/26 10:42:30;;;;;;;7.90;1.53;;;;;;;-145.18;100.00;46736.56;4980761;28;20042;-77
2024/01/26 10:44:57;;;;;;;8.33;1.20;;;;;;;-145.18;100.00;46740.47;4997147;28;20292;-78
2024/01/26 10:47:25;;;;;;;4.63;0.80;;;;;;;-145.18;100.00;46717.03;4998827;28;20085;-77
2024/01/26 10:49:53;;;;;;;10.47;1.43;;;;;;;-145.18;100.00;46728.75;4998379;28;20039;-77
2024/01/26 10:52:20;;;;;;;3.93;1.03;;;;;;;-145.18;100.00;46724.84;4997328;28;20038;-77
2024/01/26 10:54:50;;;;;;;4.87;1.33;;;;;;;-145.18;100.00;46730.72;4997147;28;20022;-77